This is the latest recevied weather packets stored in our database for station/object AC5CM. If no packets are shown the sender has not sent any weather packets the latest 10 day(s).
| Time | Temp. | Humidity | Pressure | Rain* | Wind** | Luminosity | Snow |
|---|---|---|---|---|---|---|---|
| 1777778431 | 15° C | 77% | 1021 hPa | 0 mm | - | - | - |
| 1777778129 | 15° C | 76% | 1020.9 hPa | 0 mm | - | - | - |
| 1777777826 | 15.56° C | 75% | 1020.5 hPa | 0 mm | - | - | - |
| 1777777521 | 15.56° C | 73% | 1020.9 hPa | 0 mm | - | - | - |
| 1777777219 | 15.56° C | 73% | 1020.8 hPa | 0 mm | - | - | - |
| 1777776915 | 16.11° C | 72% | 1020.7 hPa | 0 mm | - | - | - |
| 1777776614 | 16.11° C | 71% | 1020.7 hPa | 0 mm | - | - | - |
| 1777776309 | 16.11° C | 71% | 1020.9 hPa | 0 mm | - | - | - |
| 1777776007 | 16.11° C | 71% | 1020.7 hPa | 0 mm | - | - | - |
| 1777775703 | 16.67° C | 70% | 1020.8 hPa | 0 mm | - | - | - |
| 1777775400 | 16.67° C | 70% | 1020.8 hPa | 0 mm | - | - | - |
| 1777775096 | 16.67° C | 67% | 1020.8 hPa | 0 mm | - | - | - |
| 1777769641 | 21.67° C | 44% | 1019.8 hPa | 0 mm | - | - | - |
| 1777768732 | 22.22° C | 44% | 1019.6 hPa | 0 mm | - | - | - |
| 1777767823 | 22.78° C | 41% | 1019.4 hPa | 0 mm | - | - | - |
| 1777767215 | 22.78° C | 41% | 1019.3 hPa | 0 mm | - | - | - |
| 1777766913 | 22.78° C | 40% | 1019.2 hPa | 0 mm | - | - | - |
| 1777766307 | 23.33° C | 40% | 1019.1 hPa | 0 mm | - | - | - |
| 1777765701 | 23.33° C | 38% | 1019.1 hPa | 0 mm | - | - | - |
| 1777765398 | 23.89° C | 37% | 1019.3 hPa | 0 mm | - | - | - |
| 1777764791 | 24.44° C | 37% | 1019.1 hPa | 0 mm | - | - | - |
| 1777764184 | 24.44° C | 36% | 1019 hPa | 0 mm | - | - | - |
| 1777762064 | 24.44° C | 37% | 1018.8 hPa | 0 mm | - | - | - |
| 1777761458 | 25° C | 36% | 1018.8 hPa | 0 mm | - | - | - |
| 1777760550 | 25° C | 38% | 1019.1 hPa | 0 mm | - | - | - |
* Rain latest hour (hover to see other rain measurements)
** Current wind speed in m/s (hover to see current wind gust speed)